Time;durP1;ratioP1;P1;durP2;ratioP2;P2;SDS_P1;SDS_P2;PMS_P1;PMS_P2;Temp;Humidity;BMP_temperature;BMP_pressure;BME280_temperature;BME280_humidity;BME280_pressure;Samples;Min_cycle;Max_cycle;Signal;HPM_P1;HPM_P2
2023/06/10 00:01:13;;;;;;;10.95;8.18;;;15.40;99.90;;;;;;5070896;28;19946;-62
2023/06/10 00:03:38;;;;;;;10.30;8.02;;;15.40;99.90;;;;;;5073466;28;20040;-62
2023/06/10 00:06:05;;;;;;;;;;;15.40;99.90;;;;;;5078609;28;20090;-63
2023/06/10 00:08:31;;;;;;;12.68;7.90;;;15.40;99.90;;;;;;5079877;28;19916;-63
2023/06/10 00:10:57;;;;;;;11.38;8.30;;;15.30;99.90;;;;;;5081144;28;20048;-63
2023/06/10 00:13:22;;;;;;;;;;;15.30;99.90;;;;;;5074882;28;20556;-62
2023/06/10 00:15:48;;;;;;;11.55;7.93;;;15.30;99.90;;;;;;5071225;28;19927;-62
2023/06/10 00:18:14;;;;;;;13.30;8.48;;;15.30;99.90;;;;;;5065199;28;20036;-64
2023/06/10 00:20:40;;;;;;;11.88;8.63;;;15.20;99.90;;;;;;5058156;28;20041;-62
2023/06/10 00:23:08;;;;;;;11.75;8.10;;;15.20;99.90;;;;;;5060358;28;20059;-62
2023/06/10 00:25:34;;;;;;;10.73;7.75;;;15.20;99.90;;;;;;5063564;28;20052;-63
2023/06/10 00:27:59;;;;;;;;;;;15.20;99.90;;;;;;5061262;28;20040;-62
2023/06/10 00:30:26;;;;;;;14.73;8.15;;;15.20;99.90;;;;;;5064672;28;19991;-62
2023/06/10 00:32:51;;;;;;;13.63;8.48;;;15.10;99.90;;;;;;5064715;28;20068;-62
2023/06/10 00:35:17;;;;;;;;;;;15.10;99.90;;;;;;5065484;28;20585;-62
2023/06/10 00:37:43;;;;;;;13.25;9.13;;;15.10;99.90;;;;;;5065173;28;19939;-62
2023/06/10 00:40:09;;;;;;;10.82;8.10;;;15.00;99.90;;;;;;5059047;28;20033;-62
2023/06/10 00:42:35;;;;;;;10.75;8.13;;;15.00;99.90;;;;;;5077569;28;20616;-63
2023/06/10 00:45:00;;;;;;;;;;;15.00;99.90;;;;;;5059093;28;20033;-62
2023/06/10 00:47:27;;;;;;;12.18;8.07;;;15.00;99.90;;;;;;5056396;28;19925;-63
2023/06/10 00:49:54;;;;;;;11.38;8.30;;;15.00;99.90;;;;;;5062808;28;21817;-62
2023/06/10 00:52:25;;;;;;;14.77;8.20;;;14.90;99.90;;;;;;5061606;28;20048;-62
2023/06/10 00:54:51;;;;;;;10.30;7.93;;;14.90;99.90;;;;;;5063752;28;20450;-63
2023/06/10 00:57:17;;;;;;;;;;;14.90;99.90;;;;;;5062490;28;20036;-62
2023/06/10 00:59:49;;;;;;;13.10;8.80;;;14.90;99.90;;;;;;5065087;28;19922;-63
2023/06/10 01:02:15;;;;;;;14.30;8.63;;;14.80;99.90;;;;;;5061508;28;20035;-63
2023/06/10 01:04:41;;;;;;;;;;;14.70;99.90;;;;;;5066625;28;20033;-63
2023/06/10 01:07:26;;;;;;;17.23;8.30;;;14.70;99.90;;;;;;5066112;28;19921;-63
2023/06/10 01:10:01;;;;;;;11.45;8.70;;;14.70;99.90;;;;;;5060722;28;20039;-62
2023/06/10 01:12:41;;;;;;;11.95;7.97;;;14.70;99.90;;;;;;5061676;28;20036;-62
2023/06/10 01:15:09;;;;;;;22.05;8.38;;;14.70;99.90;;;;;;5060304;28;20044;-62
2023/06/10 01:17:53;;;;;;;11.75;8.23;;;14.70;99.90;;;;;;5061301;28;20500;-63
2023/06/10 01:20:19;;;;;;;18.33;8.40;;;14.70;99.90;;;;;;5056450;28;20041;-62
2023/06/10 01:22:45;;;;;;;;;;;14.60;99.90;;;;;;5057468;28;20439;-62
2023/06/10 01:25:11;;;;;;;16.77;8.15;;;14.60;99.90;;;;;;5058531;28;19920;-62
2023/06/10 01:27:40;;;;;;;13.63;9.15;;;14.60;99.90;;;;;;5060329;28;20045;-62
2023/06/10 01:30:15;;;;;;;10.50;8.07;;;14.60;99.90;;;;;;5061443;28;20116;-63
2023/06/10 01:32:48;;;;;;;15.85;8.43;;;14.60;99.90;;;;;;5064620;28;20032;-62
2023/06/10 01:35:14;;;;;;;13.50;8.45;;;14.60;99.90;;;;;;5064753;28;20047;-63
2023/06/10 01:37:42;;;;;;;13.30;8.25;;;14.60;99.90;;;;;;5065363;28;20037;-62
2023/06/10 01:40:09;;;;;;;10.45;8.43;;;14.60;99.90;;;;;;5063298;28;20032;-63
2023/06/10 01:42:35;;;;;;;13.32;8.10;;;14.50;99.90;;;;;;5061055;28;20043;-62
2023/06/10 01:45:00;;;;;;;11.15;8.43;;;14.50;99.90;;;;;;5061060;28;20083;-61
2023/06/10 01:47:26;;;;;;;;;;;14.50;99.90;;;;;;5058882;28;20508;-62
2023/06/10 01:49:51;;;;;;;13.63;7.97;;;14.50;99.90;;;;;;5059123;28;19927;-62
2023/06/10 01:52:17;;;;;;;;;;;14.40;99.90;;;;;;5058964;28;20071;-62
2023/06/10 01:54:43;;;;;;;12.13;7.28;;;14.40;99.90;;;;;;5058813;28;19951;-62
2023/06/10 01:57:09;;;;;;;11.40;7.72;;;14.30;99.90;;;;;;5059459;28;20032;-62
2023/06/10 01:59:36;;;;;;;10.57;7.55;;;14.30;99.90;;;;;;5062662;28;20119;-63
2023/06/10 02:02:02;;;;;;;13.70;7.60;;;14.30;99.90;;;;;;5060131;28;20115;-62
2023/06/10 02:04:27;;;;;;;;;;;14.30;99.90;;;;;;5062494;28;20127;-63
2023/06/10 02:06:53;;;;;;;11.88;7.70;;;14.20;99.90;;;;;;5063022;28;19924;-62
2023/06/10 02:09:19;;;;;;;12.65;8.60;;;14.20;99.90;;;;;;5063254;28;20033;-62
2023/06/10 02:11:44;;;;;;;;;;;14.20;99.90;;;;;;5059539;28;20043;-62
2023/06/10 02:14:10;;;;;;;15.32;6.82;;;14.20;99.90;;;;;;5059311;28;19920;-62
2023/06/10 02:16:35;;;;;;;;;;;14.20;99.90;;;;;;5058825;28;20143;-63
2023/06/10 02:19:02;;;;;;;11.23;7.00;;;14.10;99.90;;;;;;5062505;28;19995;-62
2023/06/10 02:21:28;;;;;;;13.50;7.38;;;14.10;99.90;;;;;;5058516;28;20499;-62
2023/06/10 02:23:53;;;;;;;;;;;14.10;99.90;;;;;;5059735;28;20037;-62
2023/06/10 02:26:20;;;;;;;11.80;7.35;;;14.10;99.90;;;;;;5062323;28;19977;-61
2023/06/10 02:28:45;;;;;;;12.45;8.07;;;14.00;99.90;;;;;;5060770;28;20506;-61
2023/06/10 02:31:11;;;;;;;;;;;14.00;99.90;;;;;;5062030;28;20032;-61
2023/06/10 02:33:39;;;;;;;12.35;7.80;;;14.00;99.90;;;;;;5059974;28;19916;-61
2023/06/10 02:36:06;;;;;;;10.98;7.28;;;13.90;99.90;;;;;;5062164;28;20044;-61
2023/06/10 02:38:31;;;;;;;16.10;7.63;;;13.90;99.90;;;;;;5063091;28;20167;-61
2023/06/10 02:40:57;;;;;;;;;;;13.90;99.90;;;;;;5055133;28;20123;-61
2023/06/10 02:43:22;;;;;;;11.82;6.85;;;13.90;99.90;;;;;;5063459;28;19981;-62
2023/06/10 02:45:48;;;;;;;;;;;13.90;99.90;;;;;;5064921;28;20460;-62
2023/06/10 02:48:13;;;;;;;11.93;6.80;;;13.90;99.90;;;;;;5067838;28;19935;-62
2023/06/10 02:50:40;;;;;;;;;;;13.80;99.90;;;;;;5067466;28;20083;-62
2023/06/10 02:53:06;;;;;;;15.05;6.80;;;13.80;99.90;;;;;;5059675;28;20011;-61
2023/06/10 02:55:32;;;;;;;;;;;13.80;99.90;;;;;;5063483;28;20052;-62
2023/06/10 02:57:57;;;;;;;11.17;5.97;;;13.80;99.90;;;;;;5061846;28;19964;-62
2023/06/10 03:00:23;;;;;;;;;;;13.70;99.90;;;;;;5062748;28;20833;-61
2023/06/10 03:02:49;;;;;;;9.13;6.10;;;13.70;99.90;;;;;;5065105;28;19931;-61
2023/06/10 03:05:14;;;;;;;;;;;13.70;99.90;;;;;;5063913;28;20037;-61
2023/06/10 03:07:42;;;;;;;14.60;6.57;;;13.60;99.90;;;;;;5063269;28;20015;-62
2023/06/10 03:10:08;;;;;;;9.23;6.40;;;13.70;99.90;;;;;;5060582;28;20954;-61
2023/06/10 03:12:33;;;;;;;;;;;13.70;99.90;;;;;;5059322;28;20128;-62
2023/06/10 03:14:59;;;;;;;17.17;7.20;;;13.70;99.90;;;;;;5059156;28;19928;-62
2023/06/10 03:17:25;;;;;;;;;;;13.60;99.90;;;;;;5060915;28;20470;-61
2023/06/10 03:19:50;;;;;;;11.50;7.07;;;13.60;99.90;;;;;;5062325;28;19924;-62
2023/06/10 03:22:16;;;;;;;9.48;6.40;;;13.60;99.90;;;;;;5059480;28;20044;-62
2023/06/10 03:24:43;;;;;;;10.07;6.72;;;13.60;99.90;;;;;;5060127;28;20104;-61
2023/06/10 03:27:10;;;;;;;13.25;7.28;;;13.60;99.90;;;;;;5052508;28;20128;-61
2023/06/10 03:29:39;;;;;;;9.10;6.47;;;13.60;99.90;;;;;;5060033;28;20837;-61
2023/06/10 03:32:05;;;;;;;11.57;7.13;;;13.50;99.90;;;;;;5060600;28;20057;-62
2023/06/10 03:34:34;;;;;;;11.35;6.65;;;13.50;99.90;;;;;;5061850;28;20040;-61
2023/06/10 03:37:00;;;;;;;12.55;7.30;;;13.50;99.90;;;;;;5060883;28;20060;-61
2023/06/10 03:39:28;;;;;;;;;;;13.60;99.90;;;;;;5058416;28;20464;-61
2023/06/10 03:41:54;;;;;;;15.23;6.22;;;13.70;99.90;;;;;;5061618;28;19920;-61
2023/06/10 03:44:20;;;;;;;;;;;13.80;99.90;;;;;;5059522;28;20036;-62
2023/06/10 03:46:45;;;;;;;13.50;6.22;;;13.80;99.90;;;;;;5064087;28;19951;-62
2023/06/10 03:49:11;;;;;;;;;;;13.70;99.90;;;;;;5062752;28;20650;-62
2023/06/10 03:51:37;;;;;;;7.72;5.78;;;13.70;99.90;;;;;;5063081;28;20376;-60
2023/06/10 03:54:03;;;;;;;10.85;6.63;;;13.70;99.90;;;;;;5060011;28;20040;-59
2023/06/10 03:56:28;;;;;;;;;;;13.70;99.90;;;;;;5065314;28;20519;-61
2023/06/10 03:58:55;;;;;;;8.18;6.40;;;13.70;99.90;;;;;;5060048;28;19917;-60
2023/06/10 04:01:21;;;;;;;9.02;6.13;;;13.80;99.90;;;;;;5065166;28;20056;-62
2023/06/10 04:03:48;;;;;;;;;;;13.80;99.90;;;;;;5059828;28;20037;-62
2023/06/10 04:06:14;;;;;;;9.55;6.13;;;13.90;99.90;;;;;;5065359;28;19920;-62
2023/06/10 04:08:40;;;;;;;;;;;14.00;99.90;;;;;;5066738;28;20181;-61
2023/06/10 04:11:06;;;;;;;9.90;6.93;;;14.10;99.90;;;;;;5065933;28;19999;-61
2023/06/10 04:13:31;;;;;;;12.32;6.65;;;14.20;99.90;;;;;;5058363;28;20527;-61
2023/06/10 04:15:58;;;;;;;;;;;14.20;99.90;;;;;;5066173;28;20032;-62
2023/06/10 04:18:23;;;;;;;10.27;6.07;;;14.30;99.90;;;;;;5061882;28;19927;-62
2023/06/10 04:20:49;;;;;;;10.05;5.95;;;14.40;99.90;;;;;;5065948;28;20068;-62
2023/06/10 04:23:14;;;;;;;;;;;14.50;99.90;;;;;;5061409;28;20029;-62
2023/06/10 04:25:40;;;;;;;9.45;5.95;;;14.50;99.90;;;;;;5064014;28;20009;-60
2023/06/10 04:28:06;;;;;;;;;;;14.60;99.90;;;;;;5062075;28;20060;-62
2023/06/10 04:30:31;;;;;;;8.88;5.80;;;14.70;99.90;;;;;;5062821;28;19924;-62
2023/06/10 04:32:57;;;;;;;8.63;5.47;;;15.10;99.90;;;;;;5061708;28;20090;-61
2023/06/10 04:35:23;;;;;;;;;;;15.60;99.90;;;;;;5065899;28;20113;-61
2023/06/10 04:37:48;;;;;;;14.52;5.50;;;15.70;99.90;;;;;;5064899;28;19916;-61
2023/06/10 04:40:15;;;;;;;14.73;5.95;;;15.80;99.90;;;;;;5065742;28;20040;-63
2023/06/10 04:42:41;;;;;;;7.30;5.40;;;15.60;99.90;;;;;;5057996;28;20130;-61
2023/06/10 04:45:07;;;;;;;;;;;15.60;99.90;;;;;;5066496;28;20071;-62
2023/06/10 04:47:33;;;;;;;8.77;5.53;;;15.60;99.90;;;;;;5062354;28;19932;-63
2023/06/10 04:49:59;;;;;;;;;;;15.60;99.90;;;;;;5063607;28;20048;-63
2023/06/10 04:52:24;;;;;;;12.43;5.35;;;15.70;99.90;;;;;;5061289;28;19928;-62
2023/06/10 04:54:50;;;;;;;;;;;15.90;99.90;;;;;;5064981;28;20043;-62
2023/06/10 04:57:15;;;;;;;8.85;5.63;;;16.20;99.90;;;;;;5059074;28;20031;-62
2023/06/10 04:59:41;;;;;;;;;;;16.20;99.90;;;;;;5065513;28;20105;-63
2023/06/10 05:02:06;;;;;;;7.82;5.60;;;16.10;99.90;;;;;;5060927;28;19962;-62
2023/06/10 05:04:32;;;;;;;14.82;6.07;;;16.10;99.90;;;;;;5063622;28;20049;-63
2023/06/10 05:06:58;;;;;;;;;;;16.10;99.90;;;;;;5064357;28;20045;-62
2023/06/10 05:09:23;;;;;;;7.63;4.75;;;16.10;99.90;;;;;;5062785;28;19942;-63
2023/06/10 05:11:49;;;;;;;7.38;4.97;;;16.20;99.90;;;;;;5062230;28;20804;-62
2023/06/10 05:14:16;;;;;;;;;;;16.30;99.90;;;;;;5062736;28;20040;-61
2023/06/10 05:16:43;;;;;;;;;;;16.30;99.90;;;;;;5065217;28;19970;-63
2023/06/10 05:19:08;;;;;;;7.68;4.80;;;16.40;99.90;;;;;;5065643;28;19916;-63
2023/06/10 05:21:34;;;;;;;9.60;5.47;;;16.50;99.90;;;;;;5064476;28;20404;-63
2023/06/10 05:24:00;;;;;;;;;;;16.60;99.90;;;;;;5061020;28;20032;-62
2023/06/10 05:26:26;;;;;;;8.07;5.53;;;16.60;99.90;;;;;;5064500;28;19929;-61
2023/06/10 05:28:52;;;;;;;;;;;16.90;99.90;;;;;;5059511;28;20032;-62
2023/06/10 05:31:18;;;;;;;6.30;4.53;;;17.30;99.90;;;;;;5062202;28;20003;-61
2023/06/10 05:33:43;;;;;;;13.18;4.68;;;17.70;99.90;;;;;;5064645;28;20139;-63
2023/06/10 05:36:09;;;;;;;;;;;17.90;99.90;;;;;;5065043;28;20036;-63
2023/06/10 05:38:34;;;;;;;6.88;4.75;;;18.00;99.90;;;;;;5060749;28;19916;-63
2023/06/10 05:41:00;;;;;;;8.00;5.32;;;18.10;99.90;;;;;;5065584;28;20033;-62
2023/06/10 05:43:26;;;;;;;11.40;5.05;;;18.30;99.90;;;;;;5055698;28;20130;-66
2023/06/10 05:45:52;;;;;;;8.95;4.80;;;18.60;99.90;;;;;;5063831;28;20040;-64
2023/06/10 05:48:19;;;;;;;11.23;4.75;;;18.90;99.90;;;;;;5059193;28;20095;-64
2023/06/10 05:50:48;;;;;;;7.85;5.00;;;19.00;99.90;;;;;;5062351;28;20039;-66
2023/06/10 05:53:15;;;;;;;7.53;5.22;;;18.90;99.90;;;;;;5060149;28;20071;-64
2023/06/10 05:55:45;;;;;;;9.25;5.13;;;18.70;99.90;;;;;;5061368;28;20051;-66
2023/06/10 05:58:12;;;;;;;16.15;5.07;;;18.70;99.90;;;;;;5058857;28;20706;-66
2023/06/10 06:00:38;;;;;;;13.13;5.68;;;19.00;99.90;;;;;;5057050;28;20047;-65
2023/06/10 06:03:05;;;;;;;8.40;4.38;;;19.00;99.90;;;;;;5055530;28;20071;-64
2023/06/10 06:05:34;;;;;;;5.70;4.30;;;19.00;99.90;;;;;;5061887;28;20155;-62
2023/06/10 06:08:01;;;;;;;10.20;4.25;;;19.10;99.90;;;;;;5064792;28;20032;-64
2023/06/10 06:10:27;;;;;;;9.45;4.10;;;19.10;99.90;;;;;;5062498;28;20120;-64
2023/06/10 06:12:52;;;;;;;;;;;19.20;99.90;;;;;;5064707;28;20127;-64
2023/06/10 06:15:18;;;;;;;11.43;3.88;;;19.40;98.80;;;;;;5063343;28;19931;-63
2023/06/10 06:17:43;;;;;;;5.88;3.50;;;19.80;96.80;;;;;;5060389;28;20125;-64
2023/06/10 06:20:09;;;;;;;7.85;3.70;;;20.70;95.60;;;;;;5062478;28;20040;-63
2023/06/10 06:22:35;;;;;;;7.40;4.40;;;21.20;96.20;;;;;;5063956;28;20037;-64
2023/06/10 06:25:01;;;;;;;8.32;3.78;;;21.00;94.90;;;;;;5057803;28;20032;-64
2023/06/10 06:27:26;;;;;;;8.80;4.15;;;20.70;94.70;;;;;;5061170;28;20492;-64
2023/06/10 06:29:52;;;;;;;9.23;4.68;;;20.60;95.60;;;;;;5063629;28;20032;-63
2023/06/10 06:32:18;;;;;;;8.23;4.32;;;20.60;95.90;;;;;;5064007;28;20043;-62
2023/06/10 06:34:43;;;;;;;11.55;4.30;;;20.80;95.50;;;;;;5057667;28;20032;-63
2023/06/10 06:37:09;;;;;;;6.82;4.10;;;21.20;95.10;;;;;;5054778;28;20048;-63
2023/06/10 06:39:34;;;;;;;10.63;4.82;;;21.00;95.20;;;;;;5059895;28;20044;-64
2023/06/10 06:42:00;;;;;;;8.18;4.65;;;21.20;95.90;;;;;;5064817;28;20048;-64
2023/06/10 06:44:26;;;;;;;6.07;4.28;;;21.40;94.00;;;;;;5062917;28;20036;-64
2023/06/10 06:46:51;;;;;;;9.75;4.25;;;21.40;95.20;;;;;;5063323;28;20601;-63
2023/06/10 06:49:17;;;;;;;6.78;4.10;;;21.40;94.00;;;;;;5060130;28;20049;-63
2023/06/10 06:51:42;;;;;;;10.27;4.85;;;21.60;94.90;;;;;;5065571;28;20404;-64
2023/06/10 06:54:08;;;;;;;6.97;4.00;;;22.30;94.10;;;;;;5057031;28;20075;-64
2023/06/10 06:56:33;;;;;;;9.68;4.55;;;22.80;92.40;;;;;;5061700;28;20037;-64
2023/06/10 06:58:59;;;;;;;9.00;4.95;;;23.10;92.80;;;;;;5064114;28;20040;-64
2023/06/10 07:01:25;;;;;;;6.78;3.70;;;23.00;91.50;;;;;;5063864;28;20127;-64
2023/06/10 07:03:50;;;;;;;8.73;4.28;;;22.80;93.10;;;;;;5054839;28;20044;-66
2023/06/10 07:06:16;;;;;;;10.35;4.35;;;22.90;91.80;;;;;;5064613;28;20433;-63
2023/06/10 07:08:41;;;;;;;9.60;5.07;;;22.50;93.90;;;;;;5065763;28;20047;-64
2023/06/10 07:11:07;;;;;;;10.77;4.20;;;22.20;92.50;;;;;;5065259;28;20040;-63
2023/06/10 07:13:32;;;;;;;6.70;4.57;;;22.10;93.60;;;;;;5058873;28;20037;-63
2023/06/10 07:15:58;;;;;;;9.27;4.20;;;22.20;94.60;;;;;;5061696;28;20063;-64
2023/06/10 07:18:24;;;;;;;12.23;4.57;;;22.90;93.00;;;;;;5063573;28;20091;-64
2023/06/10 07:20:50;;;;;;;7.85;4.25;;;23.20;92.00;;;;;;5064784;28;20025;-64
2023/06/10 07:23:15;;;;;;;7.47;4.28;;;23.20;91.20;;;;;;5059891;28;20037;-64
2023/06/10 07:25:41;;;;;;;7.05;4.40;;;23.70;90.50;;;;;;5060445;28;20048;-64
2023/06/10 07:28:07;;;;;;;10.57;4.32;;;24.10;90.20;;;;;;5066644;28;20041;-64
2023/06/10 07:30:33;;;;;;;6.93;3.90;;;24.20;90.00;;;;;;5055622;28;20054;-64
2023/06/10 07:32:59;;;;;;;9.23;4.75;;;24.80;88.90;;;;;;5061689;28;20040;-65
2023/06/10 07:35:24;;;;;;;7.53;4.20;;;24.70;88.30;;;;;;5058452;28;21028;-64
2023/06/10 07:37:50;;;;;;;9.80;5.10;;;24.40;89.10;;;;;;5054408;28;20044;-64
2023/06/10 07:40:16;;;;;;;10.23;4.75;;;23.60;88.90;;;;;;5064102;28;20047;-64
2023/06/10 07:42:43;;;;;;;5.90;4.22;;;23.30;91.50;;;;;;5059873;28;20036;-64
2023/06/10 07:45:08;;;;;;;13.75;5.53;;;23.10;92.10;;;;;;5057249;28;20094;-64
2023/06/10 07:47:34;;;;;;;11.35;4.43;;;22.90;92.00;;;;;;5060365;28;20048;-63
2023/06/10 07:50:00;;;;;;;6.60;4.30;;;22.70;92.50;;;;;;5059778;28;20049;-64
2023/06/10 07:52:26;;;;;;;5.85;4.22;;;22.50;94.30;;;;;;5057253;28;20048;-64
2023/06/10 07:54:51;;;;;;;8.00;4.25;;;22.60;93.30;;;;;;5061693;28;20044;-63
2023/06/10 07:57:19;;;;;;;10.35;4.47;;;22.70;93.20;;;;;;5062468;28;20047;-65
2023/06/10 07:59:44;;;;;;;8.45;4.80;;;22.70;92.20;;;;;;5058547;28;20047;-64
2023/06/10 08:02:10;;;;;;;7.85;4.50;;;22.80;92.00;;;;;;5062733;28;20036;-64
2023/06/10 08:04:36;;;;;;;14.18;5.53;;;22.80;93.30;;;;;;5057783;28;20040;-66
2023/06/10 08:07:02;;;;;;;9.13;4.38;;;22.90;92.40;;;;;;5063424;28;20586;-65
2023/06/10 08:09:28;;;;;;;12.23;4.72;;;24.20;90.00;;;;;;5062519;28;20066;-64
2023/06/10 08:11:53;;;;;;;7.50;4.45;;;26.10;86.50;;;;;;5059727;28;20651;-64
2023/06/10 08:14:19;;;;;;;7.22;4.30;;;26.50;83.80;;;;;;5062180;28;20032;-64
2023/06/10 08:16:45;;;;;;;9.57;4.32;;;26.20;84.40;;;;;;5059853;28;20044;-64
2023/06/10 08:19:11;;;;;;;6.05;4.72;;;25.80;85.90;;;;;;5058877;28;20538;-65
2023/06/10 08:21:39;;;;;;;39.20;6.13;;;25.80;83.90;;;;;;5060568;28;20038;-62
2023/06/10 08:24:07;;;;;;;9.40;4.45;;;25.00;87.90;;;;;;5059802;28;20059;-62
2023/06/10 08:26:32;;;;;;;8.40;4.65;;;24.80;87.60;;;;;;5056385;28;20052;-62
2023/06/10 08:28:58;;;;;;;7.82;4.50;;;24.60;87.10;;;;;;5061622;28;20105;-62
2023/06/10 08:31:23;;;;;;;7.97;4.72;;;24.30;90.10;;;;;;5064821;28;20119;-62
2023/06/10 08:33:49;;;;;;;7.55;4.50;;;24.30;90.20;;;;;;5066521;28;20040;-61
2023/06/10 08:36:15;;;;;;;11.88;5.28;;;24.70;88.90;;;;;;5061462;28;20492;-62
2023/06/10 08:38:40;;;;;;;9.93;4.18;;;24.90;87.90;;;;;;5058800;28;20037;-62
2023/06/10 08:41:06;;;;;;;9.25;4.43;;;25.30;87.10;;;;;;5065527;28;20047;-62
2023/06/10 08:43:34;;;;;;;8.95;4.82;;;25.90;84.80;;;;;;5063451;28;20072;-63
2023/06/10 08:46:02;;;;;;;14.70;5.00;;;26.80;81.30;;;;;;5065522;28;20036;-61
2023/06/10 08:48:31;;;;;;;9.50;4.40;;;27.30;80.70;;;;;;5062257;28;20051;-62
2023/06/10 08:50:58;;;;;;;10.32;4.50;;;28.10;78.20;;;;;;5063466;28;20603;-62
2023/06/10 08:53:25;;;;;;;8.05;4.03;;;27.90;76.70;;;;;;5064278;28;20044;-63
2023/06/10 08:55:54;;;;;;;5.80;4.47;;;27.50;79.70;;;;;;5063305;28;20055;-62
2023/06/10 08:58:20;;;;;;;6.60;4.53;;;26.50;80.40;;;;;;5061396;28;20083;-62
2023/06/10 09:00:46;;;;;;;13.60;4.75;;;25.60;83.50;;;;;;5067691;28;20071;-62
2023/06/10 09:03:12;;;;;;;10.18;4.72;;;24.90;84.40;;;;;;5059818;28;20044;-62
2023/06/10 09:05:38;;;;;;;9.05;4.82;;;24.50;85.20;;;;;;5058595;28;20050;-61
2023/06/10 09:08:08;;;;;;;9.63;5.22;;;24.10;89.30;;;;;;5068561;28;20052;-63
2023/06/10 09:10:34;;;;;;;7.20;4.45;;;24.00;89.20;;;;;;5066327;28;20040;-63
2023/06/10 09:12:59;;;;;;;9.57;5.47;;;23.80;89.40;;;;;;5058592;28;20032;-64
2023/06/10 09:15:25;;;;;;;9.35;4.90;;;23.70;90.70;;;;;;5064535;28;20083;-64
2023/06/10 09:17:51;;;;;;;7.72;4.55;;;23.70;87.70;;;;;;5064208;28;20036;-64
2023/06/10 09:20:17;;;;;;;7.32;4.70;;;23.70;88.10;;;;;;5052644;28;20037;-62
2023/06/10 09:22:43;;;;;;;8.48;4.95;;;23.80;86.60;;;;;;5060415;28;20419;-62
2023/06/10 09:25:11;;;;;;;8.40;5.05;;;23.90;88.40;;;;;;5065097;28;20068;-63
2023/06/10 09:27:53;;;;;;;9.85;5.60;;;23.80;88.30;;;;;;5061297;28;20044;-64
2023/06/10 09:30:30;;;;;;;12.45;4.68;;;23.60;87.30;;;;;;5062223;28;20072;-64
2023/06/10 09:32:57;;;;;;;7.40;4.82;;;23.60;85.40;;;;;;5063709;28;20036;-63
2023/06/10 09:35:24;;;;;;;7.00;5.32;;;23.70;86.00;;;;;;5059985;28;20412;-64
2023/06/10 09:38:01;;;;;;;7.53;4.80;;;23.70;88.00;;;;;;5063126;28;20057;-63
2023/06/10 09:40:30;;;;;;;9.27;5.57;;;23.80;87.80;;;;;;5061124;28;20045;-63
2023/06/10 09:42:57;;;;;;;9.18;4.72;;;23.80;84.90;;;;;;5059683;28;20082;-63
2023/06/10 09:45:29;;;;;;;10.18;4.97;;;23.80;85.60;;;;;;5064215;28;20058;-63
2023/06/10 09:47:55;;;;;;;11.88;5.03;;;23.80;84.50;;;;;;5061587;28;20049;-62
2023/06/10 09:50:21;;;;;;;7.05;4.60;;;23.90;87.30;;;;;;5057036;28;20043;-63
2023/06/10 09:52:50;;;;;;;9.52;4.53;;;23.90;84.40;;;;;;5060041;28;20090;-64
2023/06/10 09:55:17;;;;;;;10.77;5.43;;;24.00;86.80;;;;;;5063438;28;20542;-64
2023/06/10 09:57:44;;;;;;;6.65;4.60;;;24.10;86.80;;;;;;5065588;28;20771;-61
2023/06/10 10:00:11;;;;;;;13.45;5.43;;;24.10;87.10;;;;;;5061523;28;20067;-62
2023/06/10 10:02:51;;;;;;;7.35;4.60;;;24.00;84.40;;;;;;5059706;28;20093;-61
2023/06/10 10:05:18;;;;;;;8.80;5.38;;;23.90;85.50;;;;;;5060054;28;20040;-64
2023/06/10 10:07:44;;;;;;;9.70;5.60;;;23.90;84.70;;;;;;5063643;28;20049;-64
2023/06/10 10:10:12;;;;;;;8.57;4.63;;;24.00;86.10;;;;;;5061604;28;20040;-63
2023/06/10 10:12:42;;;;;;;5.43;4.53;;;24.10;87.40;;;;;;5059250;28;20389;-65
2023/06/10 10:15:09;;;;;;;11.73;4.93;;;24.20;86.40;;;;;;5060476;28;20040;-63
2023/06/10 10:17:58;;;;;;;10.40;5.63;;;24.20;85.70;;;;;;5060049;28;20136;-65
2023/06/10 10:20:29;;;;;;;9.73;4.95;;;24.20;85.50;;;;;;5061452;28;20044;-63
2023/06/10 10:22:57;;;;;;;7.78;4.80;;;24.10;84.90;;;;;;5059358;28;20955;-64
2023/06/10 10:25:29;;;;;;;7.15;4.60;;;24.20;84.90;;;;;;5062696;28;20036;-64
2023/06/10 10:28:12;;;;;;;7.47;4.95;;;24.20;86.30;;;;;;5061872;28;20086;-65
2023/06/10 10:30:42;;;;;;;9.38;5.00;;;24.30;87.00;;;;;;5062735;28;20043;-65
2023/06/10 10:33:19;;;;;;;10.50;5.10;;;24.30;87.00;;;;;;5061966;28;20113;-63
2023/06/10 10:35:50;;;;;;;7.53;5.53;;;24.30;86.30;;;;;;5062834;28;20060;-63
2023/06/10 10:38:15;;;;;;;9.60;4.65;;;24.30;84.90;;;;;;5063169;28;20655;-63
2023/06/10 10:40:42;;;;;;;7.95;5.05;;;24.40;83.90;;;;;;5064907;28;20127;-63
2023/06/10 10:43:08;;;;;;;8.25;4.93;;;24.40;85.30;;;;;;5060280;28;20037;-63
2023/06/10 10:45:34;;;;;;;10.60;4.90;;;24.50;81.40;;;;;;5050753;28;20105;-64
2023/06/10 10:48:08;;;;;;;8.38;5.63;;;24.50;80.40;;;;;;5059890;28;20041;-64
2023/06/10 10:50:34;;;;;;;8.73;4.40;;;24.70;82.30;;;;;;5053513;28;20587;-63
2023/06/10 10:53:02;;;;;;;9.00;5.00;;;25.00;82.70;;;;;;5059828;28;20040;-65
2023/06/10 10:55:28;;;;;;;9.88;4.85;;;24.90;82.00;;;;;;5058856;28;20123;-64
2023/06/10 10:58:06;;;;;;;7.60;5.32;;;25.10;77.20;;;;;;5059041;28;20519;-64
2023/06/10 11:00:33;;;;;;;8.50;5.55;;;24.90;79.50;;;;;;5062101;28;20041;-64
2023/06/10 11:03:08;;;;;;;5.15;4.22;;;24.90;82.20;;;;;;5058886;28;20139;-64
2023/06/10 11:05:38;;;;;;;8.93;4.35;;;24.80;81.70;;;;;;5059926;28;20036;-64
2023/06/10 11:08:05;;;;;;;12.82;4.32;;;24.90;79.00;;;;;;5057877;28;20048;-64
2023/06/10 11:10:35;;;;;;;6.13;4.47;;;25.10;80.00;;;;;;5056018;28;20132;-65
2023/06/10 11:13:14;;;;;;;9.82;4.60;;;25.30;75.80;;;;;;5059413;28;20488;-65
2023/06/10 11:15:46;;;;;;;6.93;4.70;;;25.20;77.10;;;;;;5052385;28;20037;-64
2023/06/10 11:18:15;;;;;;;8.07;4.53;;;25.10;76.10;;;;;;5060755;28;20443;-64
2023/06/10 11:20:50;;;;;;;15.48;4.65;;;25.10;78.40;;;;;;5056171;28;20115;-64
2023/06/10 11:23:27;;;;;;;8.38;4.75;;;25.00;76.70;;;;;;5060816;28;20040;-64
2023/06/10 11:26:12;;;;;;;9.35;4.90;;;25.00;75.40;;;;;;5057967;28;20044;-64
2023/06/10 11:28:38;;;;;;;8.77;4.30;;;24.80;79.20;;;;;;5059311;28;20032;-64
2023/06/10 11:31:04;;;;;;;6.50;4.45;;;24.90;78.70;;;;;;5055988;28;20801;-64
2023/06/10 11:33:31;;;;;;;7.25;4.80;;;25.10;79.40;;;;;;5059123;28;20123;-64
2023/06/10 11:35:58;;;;;;;8.32;4.85;;;25.10;81.20;;;;;;5062808;28;20174;-63
2023/06/10 11:38:24;;;;;;;14.30;5.00;;;25.10;83.50;;;;;;5062111;28;20048;-64
2023/06/10 11:40:50;;;;;;;5.75;3.95;;;25.00;77.60;;;;;;5063401;28;20040;-64
2023/06/10 11:43:19;;;;;;;8.52;4.07;;;25.00;80.50;;;;;;5058306;28;20040;-64
2023/06/10 11:45:45;;;;;;;6.60;4.45;;;25.00;79.30;;;;;;5060341;28;20040;-64
2023/06/10 11:48:12;;;;;;;11.52;4.70;;;25.10;77.50;;;;;;5061606;28;20036;-64
2023/06/10 11:50:38;;;;;;;7.72;4.40;;;25.00;76.20;;;;;;5064025;28;20601;-64
2023/06/10 11:53:04;;;;;;;10.18;4.88;;;25.10;77.20;;;;;;5061399;28;20086;-64
2023/06/10 11:55:47;;;;;;;8.68;4.88;;;25.20;75.60;;;;;;5062050;28;20428;-64
2023/06/10 11:58:20;;;;;;;6.78;4.32;;;25.30;76.50;;;;;;5060658;28;20690;-63
2023/06/10 12:00:47;;;;;;;13.13;4.93;;;25.20;76.00;;;;;;5060214;28;20056;-64
2023/06/10 12:03:14;;;;;;;7.05;4.57;;;24.90;77.10;;;;;;5063339;28;20039;-63
2023/06/10 12:05:39;;;;;;;16.17;5.00;;;24.90;76.60;;;;;;5060960;28;20036;-64
2023/06/10 12:08:12;;;;;;;9.70;4.75;;;24.90;79.40;;;;;;5064309;28;20094;-64
2023/06/10 12:10:42;;;;;;;7.25;4.40;;;25.20;75.10;;;;;;5060321;28;20047;-65
2023/06/10 12:13:09;;;;;;;9.43;5.25;;;25.40;77.60;;;;;;5059237;28;20032;-62
2023/06/10 12:15:35;;;;;;;10.43;4.25;;;25.30;77.10;;;;;;5063868;28;20324;-62
2023/06/10 12:18:02;;;;;;;10.02;4.32;;;25.30;78.60;;;;;;5068046;28;20041;-63
2023/06/10 12:20:31;;;;;;;7.93;4.50;;;25.30;79.70;;;;;;5065962;28;20040;-63
2023/06/10 12:22:57;;;;;;;6.93;4.38;;;25.30;75.90;;;;;;5063413;28;20038;-63
2023/06/10 12:25:28;;;;;;;6.53;3.95;;;25.30;75.10;;;;;;5064875;28;20040;-63
2023/06/10 12:27:56;;;;;;;11.55;4.10;;;25.40;76.90;;;;;;5063628;28;20047;-63
2023/06/10 12:30:26;;;;;;;9.82;4.78;;;25.10;76.70;;;;;;5065777;28;20048;-62
2023/06/10 12:32:53;;;;;;;6.55;4.32;;;25.00;78.00;;;;;;5062988;28;20041;-64
2023/06/10 12:35:20;;;;;;;9.27;4.13;;;24.90;80.00;;;;;;5065951;28;20040;-64
2023/06/10 12:38:06;;;;;;;7.53;4.78;;;25.10;77.90;;;;;;5062562;28;20056;-64
2023/06/10 12:40:40;;;;;;;8.10;5.30;;;25.30;77.70;;;;;;5069446;28;20037;-65
2023/06/10 12:43:06;;;;;;;6.85;4.32;;;25.10;80.20;;;;;;5058575;28;20041;-64
2023/06/10 12:45:32;;;;;;;8.52;4.28;;;25.10;75.00;;;;;;5060902;28;20036;-64
2023/06/10 12:48:24;;;;;;;11.27;4.70;;;25.00;73.40;;;;;;5060998;28;20056;-62
2023/06/10 12:50:57;;;;;;;11.93;4.60;;;25.20;72.90;;;;;;5059828;28;20063;-62
2023/06/10 12:53:26;;;;;;;8.18;3.78;;;25.40;73.30;;;;;;5063581;28;20500;-63
2023/06/10 12:55:52;;;;;;;6.30;4.53;;;25.40;76.40;;;;;;5063020;28;20212;-62